sensor_id;sensor_type;location;lat;lon;timestamp;pressure;altitude;pressure_sealevel;temperature;humidity
64739;BME280;51175;51.186;0.276;2022-10-16T00:00:03;100256.88;;;16.66;62.63
64739;BME280;51175;51.186;0.276;2022-10-16T00:00:37;100258.75;;;16.65;62.64
64739;BME280;51175;51.186;0.276;2022-10-16T00:01:10;100259.53;;;16.66;62.83
64739;BME280;51175;51.186;0.276;2022-10-16T00:01:41;100264.09;;;16.65;62.99
64739;BME280;51175;51.186;0.276;2022-10-16T00:02:12;100264.84;;;16.66;62.63
64739;BME280;51175;51.186;0.276;2022-10-16T00:02:42;100267.53;;;16.66;62.50
64739;BME280;51175;51.186;0.276;2022-10-16T00:03:12;100265.97;;;16.65;62.64
64739;BME280;51175;51.186;0.276;2022-10-16T00:03:44;100265.97;;;16.65;62.69
64739;BME280;51175;51.186;0.276;2022-10-16T00:04:15;100262.19;;;16.66;62.54
64739;BME280;51175;51.186;0.276;2022-10-16T00:04:45;100262.50;;;16.64;62.67
64739;BME280;51175;51.186;0.276;2022-10-16T00:05:16;100264.09;;;16.65;62.84
64739;BME280;51175;51.186;0.276;2022-10-16T00:05:46;100259.06;;;16.63;62.54
64739;BME280;51175;51.186;0.276;2022-10-16T00:06:19;100268.63;;;16.65;62.76
64739;BME280;51175;51.186;0.276;2022-10-16T00:06:50;100264.09;;;16.65;62.60
64739;BME280;51175;51.186;0.276;2022-10-16T00:07:20;100265.66;;;16.66;62.79
64739;BME280;51175;51.186;0.276;2022-10-16T00:07:50;100262.50;;;16.64;62.60
64739;BME280;51175;51.186;0.276;2022-10-16T00:08:21;100265.97;;;16.65;62.70
64739;BME280;51175;51.186;0.276;2022-10-16T00:08:51;100265.97;;;16.65;62.57
64739;BME280;51175;51.186;0.276;2022-10-16T00:09:22;100257.97;;;16.65;62.48
64739;BME280;51175;51.186;0.276;2022-10-16T00:09:52;100265.16;;;16.64;62.79
64739;BME280;51175;51.186;0.276;2022-10-16T00:10:23;100261.72;;;16.63;62.82
64739;BME280;51175;51.186;0.276;2022-10-16T00:10:59;100260.63;;;16.65;62.48
64739;BME280;51175;51.186;0.276;2022-10-16T00:11:32;100264.41;;;16.63;62.66
64739;BME280;51175;51.186;0.276;2022-10-16T00:12:03;100257.16;;;16.64;62.51
64739;BME280;51175;51.186;0.276;2022-10-16T00:12:36;100266.28;;;16.63;62.51
64739;BME280;51175;51.186;0.276;2022-10-16T00:13:07;100262.81;;;16.62;62.66
64739;BME280;51175;51.186;0.276;2022-10-16T00:13:39;100260.94;;;16.63;62.76
64739;BME280;51175;51.186;0.276;2022-10-16T00:14:13;100259.38;;;16.62;62.59
64739;BME280;51175;51.186;0.276;2022-10-16T00:14:43;100260.16;;;16.62;62.62
64739;BME280;51175;51.186;0.276;2022-10-16T00:15:14;100246.81;;;16.62;62.43
64739;BME280;51175;51.186;0.276;2022-10-16T00:15:45;100250.59;;;16.61;62.48
64739;BME280;51175;51.186;0.276;2022-10-16T00:16:17;100252.44;;;16.61;62.71
64739;BME280;51175;51.186;0.276;2022-10-16T00:16:47;100262.03;;;16.62;62.51
64739;BME280;51175;51.186;0.276;2022-10-16T00:17:18;100260.16;;;16.62;62.63
64739;BME280;51175;51.186;0.276;2022-10-16T00:17:48;100256.72;;;16.62;62.70
64739;BME280;51175;51.186;0.276;2022-10-16T00:18:18;100255.91;;;16.61;62.72
64739;BME280;51175;51.186;0.276;2022-10-16T00:18:49;100267.38;;;16.62;62.58
64739;BME280;51175;51.186;0.276;2022-10-16T00:19:19;100257.78;;;16.61;62.44
64739;BME280;51175;51.186;0.276;2022-10-16T00:19:49;100263.91;;;16.61;62.45
64739;BME280;51175;51.186;0.276;2022-10-16T00:20:20;100262.81;;;16.62;62.53
64739;BME280;51175;51.186;0.276;2022-10-16T00:20:51;100270.34;;;16.60;62.52
64739;BME280;51175;51.186;0.276;2022-10-16T00:21:24;100259.69;;;16.60;62.43
64739;BME280;51175;51.186;0.276;2022-10-16T00:21:55;100255.91;;;16.61;62.50
64739;BME280;51175;51.186;0.276;2022-10-16T00:22:25;100260.44;;;16.61;62.70
64739;BME280;51175;51.186;0.276;2022-10-16T00:22:56;100261.25;;;16.61;62.49
64739;BME280;51175;51.186;0.276;2022-10-16T00:23:26;100257.00;;;16.60;62.67
64739;BME280;51175;51.186;0.276;2022-10-16T00:23:59;100263.13;;;16.61;62.42
64739;BME280;51175;51.186;0.276;2022-10-16T00:24:30;100259.69;;;16.60;62.47
64739;BME280;51175;51.186;0.276;2022-10-16T00:25:00;100263.13;;;16.61;62.63
64739;BME280;51175;51.186;0.276;2022-10-16T00:25:32;100271.13;;;16.61;62.30
64739;BME280;51175;51.186;0.276;2022-10-16T00:26:11;100265.00;;;16.60;62.63
64739;BME280;51175;51.186;0.276;2022-10-16T00:26:42;100265.78;;;16.61;62.45
64739;BME280;51175;51.186;0.276;2022-10-16T00:27:12;100261.56;;;16.60;62.46
64739;BME280;51175;51.186;0.276;2022-10-16T00:27:42;100276.44;;;16.61;62.46
64739;BME280;51175;51.186;0.276;2022-10-16T00:28:13;100257.00;;;16.60;62.35
64739;BME280;51175;51.186;0.276;2022-10-16T00:28:48;100264.22;;;16.60;62.65
64739;BME280;51175;51.186;0.276;2022-10-16T00:29:19;100268.75;;;16.59;62.58
64739;BME280;51175;51.186;0.276;2022-10-16T00:29:50;100270.34;;;16.60;62.72
64739;BME280;51175;51.186;0.276;2022-10-16T00:30:21;100266.09;;;16.59;62.63
64739;BME280;51175;51.186;0.276;2022-10-16T00:30:51;100274.09;;;16.59;62.43
64739;BME280;51175;51.186;0.276;2022-10-16T00:31:23;100267.69;;;16.60;62.53
64739;BME280;51175;51.186;0.276;2022-10-16T00:31:53;100270.66;;;16.59;62.63
64739;BME280;51175;51.186;0.276;2022-10-16T00:32:24;100268.75;;;16.59;62.66
64739;BME280;51175;51.186;0.276;2022-10-16T00:32:55;100265.31;;;16.59;62.54
64739;BME280;51175;51.186;0.276;2022-10-16T00:33:25;100263.72;;;16.58;62.65
64739;BME280;51175;51.186;0.276;2022-10-16T00:33:56;100257.63;;;16.57;62.72
64739;BME280;51175;51.186;0.276;2022-10-16T00:34:26;100265.63;;;16.57;62.69
64739;BME280;51175;51.186;0.276;2022-10-16T00:34:56;100265.63;;;16.57;62.35
64739;BME280;51175;51.186;0.276;2022-10-16T00:35:27;100268.28;;;16.57;62.48
64739;BME280;51175;51.186;0.276;2022-10-16T00:35:59;100268.28;;;16.57;62.72
64739;BME280;51175;51.186;0.276;2022-10-16T00:36:30;100266.38;;;16.58;62.56
64739;BME280;51175;51.186;0.276;2022-10-16T00:37:02;100262.16;;;16.57;62.67
64739;BME280;51175;51.186;0.276;2022-10-16T00:37:33;100268.28;;;16.57;62.72
64739;BME280;51175;51.186;0.276;2022-10-16T00:38:03;100270.16;;;16.57;62.25
64739;BME280;51175;51.186;0.276;2022-10-16T00:38:34;100266.69;;;16.56;62.38
64739;BME280;51175;51.186;0.276;2022-10-16T00:39:04;100273.63;;;16.57;62.63
64739;BME280;51175;51.186;0.276;2022-10-16T00:39:35;100266.69;;;16.56;62.33
64739;BME280;51175;51.186;0.276;2022-10-16T00:40:06;100264.03;;;16.56;62.60
64739;BME280;51175;51.186;0.276;2022-10-16T00:40:36;100265.63;;;16.57;62.61
64739;BME280;51175;51.186;0.276;2022-10-16T00:41:10;100267.50;;;16.57;62.47
64739;BME280;51175;51.186;0.276;2022-10-16T00:41:42;100271.72;;;16.58;62.44
64739;BME280;51175;51.186;0.276;2022-10-16T00:42:16;100271.72;;;16.58;62.55
64739;BME280;51175;51.186;0.276;2022-10-16T00:42:47;100278.16;;;16.57;62.49
64739;BME280;51175;51.186;0.276;2022-10-16T00:43:38;100264.53;;;16.58;62.53
64739;BME280;51175;51.186;0.276;2022-10-16T00:44:58;100273.13;;;16.55;62.62
64739;BME280;51175;51.186;0.276;2022-10-16T00:45:28;100281.13;;;16.55;62.19
64739;BME280;51175;51.186;0.276;2022-10-16T00:46:00;100278.78;;;16.54;62.29
64739;BME280;51175;51.186;0.276;2022-10-16T00:46:37;100276.09;;;16.54;62.70
64739;BME280;51175;51.186;0.276;2022-10-16T00:47:17;100284.09;;;16.54;62.41
64739;BME280;51175;51.186;0.276;2022-10-16T00:47:49;100276.41;;;16.52;62.57
64739;BME280;51175;51.186;0.276;2022-10-16T00:48:22;100277.50;;;16.51;62.51
64739;BME280;51175;51.186;0.276;2022-10-16T00:49:29;100276.72;;;16.50;62.75
64739;BME280;51175;51.186;0.276;2022-10-16T00:50:38;100285.50;;;16.51;62.40
64739;BME280;51175;51.186;0.276;2022-10-16T00:51:09;100285.50;;;16.51;62.77
64739;BME280;51175;51.186;0.276;2022-10-16T00:52:00;100280.94;;;16.51;62.45
64739;BME280;51175;51.186;0.276;2022-10-16T00:52:30;100285.50;;;16.51;62.85
64739;BME280;51175;51.186;0.276;2022-10-16T00:53:02;100286.56;;;16.50;62.63
64739;BME280;51175;51.186;0.276;2022-10-16T00:53:33;100286.56;;;16.50;62.67
64739;BME280;51175;51.186;0.276;2022-10-16T00:54:18;100297.25;;;16.50;62.67
64739;BME280;51175;51.186;0.276;2022-10-16T00:54:49;100293.81;;;16.49;62.54
64739;BME280;51175;51.186;0.276;2022-10-16T00:55:21;100296.47;;;16.49;62.67
64739;BME280;51175;51.186;0.276;2022-10-16T00:55:51;100298.34;;;16.49;62.87
64739;BME280;51175;51.186;0.276;2022-10-16T00:56:22;100291.13;;;16.49;62.50
64739;BME280;51175;51.186;0.276;2022-10-16T00:56:53;100297.53;;;16.48;62.72
64739;BME280;51175;51.186;0.276;2022-10-16T00:57:24;100293.00;;;16.49;62.66
64739;BME280;51175;51.186;0.276;2022-10-16T00:57:55;100297.53;;;16.48;62.82
64739;BME280;51175;51.186;0.276;2022-10-16T00:58:27;100299.13;;;16.49;62.94
64739;BME280;51175;51.186;0.276;2022-10-16T00:58:58;100301.00;;;16.49;62.77
64739;BME280;51175;51.186;0.276;2022-10-16T00:59:40;100305.22;;;16.50;62.70
64739;BME280;51175;51.186;0.276;2022-10-16T01:00:14;100293.81;;;16.49;62.47
64739;BME280;51175;51.186;0.276;2022-10-16T01:00:45;100299.13;;;16.49;62.87
64739;BME280;51175;51.186;0.276;2022-10-16T01:01:16;100307.91;;;16.50;62.81
64739;BME280;51175;51.186;0.276;2022-10-16T01:01:46;100304.47;;;16.49;62.71
64739;BME280;51175;51.186;0.276;2022-10-16T01:02:17;100301.00;;;16.49;62.58
64739;BME280;51175;51.186;0.276;2022-10-16T01:02:55;100299.91;;;16.50;62.65
64739;BME280;51175;51.186;0.276;2022-10-16T01:03:56;100301.81;;;16.49;62.48
64739;BME280;51175;51.186;0.276;2022-10-16T01:04:32;100301.00;;;16.49;62.64
64739;BME280;51175;51.186;0.276;2022-10-16T01:05:04;100301.81;;;16.49;62.45
64739;BME280;51175;51.186;0.276;2022-10-16T01:05:44;100304.47;;;16.49;62.85
64739;BME280;51175;51.186;0.276;2022-10-16T01:07:45;100304.47;;;16.49;62.76
64739;BME280;51175;51.186;0.276;2022-10-16T01:09:52;100305.53;;;16.48;62.62
64739;BME280;51175;51.186;0.276;2022-10-16T01:10:34;100310.09;;;16.48;62.56
64739;BME280;51175;51.186;0.276;2022-10-16T01:11:22;100309.63;;;16.46;63.00
64739;BME280;51175;51.186;0.276;2022-10-16T01:12:10;100314.94;;;16.46;62.95
64739;BME280;51175;51.186;0.276;2022-10-16T01:13:09;100307.25;;;16.44;62.95
64739;BME280;51175;51.186;0.276;2022-10-16T01:13:43;100307.56;;;16.43;63.00
64739;BME280;51175;51.186;0.276;2022-10-16T01:16:14;100308.97;;;16.40;63.04
64739;BME280;51175;51.186;0.276;2022-10-16T01:17:52;100304.69;;;16.39;63.10
64739;BME280;51175;51.186;0.276;2022-10-16T01:18:38;100305.81;;;16.38;63.02
64739;BME280;51175;51.186;0.276;2022-10-16T01:19:15;100311.94;;;16.38;63.23
64739;BME280;51175;51.186;0.276;2022-10-16T01:21:32;100311.44;;;16.36;63.07
64739;BME280;51175;51.186;0.276;2022-10-16T01:22:07;100320.22;;;16.37;63.17
64739;BME280;51175;51.186;0.276;2022-10-16T01:24:40;100316.75;;;16.36;63.17
64739;BME280;51175;51.186;0.276;2022-10-16T01:27:34;100311.44;;;16.36;63.28
64739;BME280;51175;51.186;0.276;2022-10-16T01:28:06;100312.53;;;16.35;63.28
64739;BME280;51175;51.186;0.276;2022-10-16T01:29:36;100313.31;;;16.36;63.39
64739;BME280;51175;51.186;0.276;2022-10-16T01:30:10;100312.53;;;16.35;63.54
64739;BME280;51175;51.186;0.276;2022-10-16T01:30:45;100313.31;;;16.36;63.58
64739;BME280;51175;51.186;0.276;2022-10-16T01:31:18;100312.53;;;16.35;63.70
64739;BME280;51175;51.186;0.276;2022-10-16T01:32:10;100312.22;;;16.37;63.40
64739;BME280;51175;51.186;0.276;2022-10-16T01:32:56;100313.31;;;16.36;63.55
64739;BME280;51175;51.186;0.276;2022-10-16T01:33:32;100308.78;;;16.36;63.56
64739;BME280;51175;51.186;0.276;2022-10-16T01:34:11;100310.63;;;16.36;63.53
64739;BME280;51175;51.186;0.276;2022-10-16T01:35:53;100308.78;;;16.36;63.57
64739;BME280;51175;51.186;0.276;2022-10-16T01:36:31;100307.97;;;16.36;63.52
64739;BME280;51175;51.186;0.276;2022-10-16T01:37:14;100312.53;;;16.35;63.54
64739;BME280;51175;51.186;0.276;2022-10-16T01:38:39;100309.88;;;16.35;63.63
64739;BME280;51175;51.186;0.276;2022-10-16T01:39:11;100308.28;;;16.34;63.55
64739;BME280;51175;51.186;0.276;2022-10-16T01:39:45;100309.88;;;16.35;63.50
64739;BME280;51175;51.186;0.276;2022-10-16T01:40:18;100306.41;;;16.35;63.45
64739;BME280;51175;51.186;0.276;2022-10-16T01:40:56;100309.88;;;16.35;63.44
64739;BME280;51175;51.186;0.276;2022-10-16T01:41:44;100310.63;;;16.36;63.63
64739;BME280;51175;51.186;0.276;2022-10-16T01:42:30;100309.88;;;16.35;63.54
64739;BME280;51175;51.186;0.276;2022-10-16T01:43:14;100313.31;;;16.36;63.70
64739;BME280;51175;51.186;0.276;2022-10-16T01:44:22;100314.09;;;16.36;63.38
64739;BME280;51175;51.186;0.276;2022-10-16T01:44:56;100312.53;;;16.35;63.55
64739;BME280;51175;51.186;0.276;2022-10-16T01:45:29;100320.53;;;16.35;63.83
64739;BME280;51175;51.186;0.276;2022-10-16T01:46:01;100315.50;;;16.34;63.68
64739;BME280;51175;51.186;0.276;2022-10-16T01:46:34;100324.25;;;16.34;63.55
64739;BME280;51175;51.186;0.276;2022-10-16T01:47:08;100324.25;;;16.34;63.48
64739;BME280;51175;51.186;0.276;2022-10-16T01:47:41;100323.50;;;16.34;63.67
64739;BME280;51175;51.186;0.276;2022-10-16T01:48:16;100325.06;;;16.35;63.63
64739;BME280;51175;51.186;0.276;2022-10-16T01:48:48;100326.94;;;16.34;63.57
64739;BME280;51175;51.186;0.276;2022-10-16T01:49:21;100322.41;;;16.35;63.47
64739;BME280;51175;51.186;0.276;2022-10-16T01:49:54;100317.88;;;16.35;63.85
64739;BME280;51175;51.186;0.276;2022-10-16T01:50:26;100325.06;;;16.35;63.53
64739;BME280;51175;51.186;0.276;2022-10-16T01:51:03;100324.75;;;16.36;63.55
64739;BME280;51175;51.186;0.276;2022-10-16T01:51:35;100321.28;;;16.36;63.44
64739;BME280;51175;51.186;0.276;2022-10-16T01:52:10;100331.97;;;16.36;63.47
64739;BME280;51175;51.186;0.276;2022-10-16T01:52:44;100318.63;;;16.36;63.79
64739;BME280;51175;51.186;0.276;2022-10-16T01:53:16;100322.09;;;16.36;63.47
64739;BME280;51175;51.186;0.276;2022-10-16T01:53:50;100332.75;;;16.36;63.74
64739;BME280;51175;51.186;0.276;2022-10-16T01:54:23;100324.75;;;16.36;63.69
64739;BME280;51175;51.186;0.276;2022-10-16T01:54:56;100324.44;;;16.38;63.41
64739;BME280;51175;51.186;0.276;2022-10-16T01:55:35;100329.00;;;16.37;63.60
64739;BME280;51175;51.186;0.276;2022-10-16T01:56:09;100317.56;;;16.37;63.40
64739;BME280;51175;51.186;0.276;2022-10-16T01:56:42;100321.78;;;16.38;63.40
64739;BME280;51175;51.186;0.276;2022-10-16T01:57:15;100318.31;;;16.37;63.51
64739;BME280;51175;51.186;0.276;2022-10-16T01:57:49;100318.31;;;16.37;63.53
64739;BME280;51175;51.186;0.276;2022-10-16T01:58:22;100322.59;;;16.38;63.76
64739;BME280;51175;51.186;0.276;2022-10-16T01:59:15;100320.69;;;16.39;63.50
64739;BME280;51175;51.186;0.276;2022-10-16T01:59:50;100317.25;;;16.38;63.59
64739;BME280;51175;51.186;0.276;2022-10-16T02:00:22;100319.91;;;16.38;63.43
64739;BME280;51175;51.186;0.276;2022-10-16T02:00:54;100321.00;;;16.37;63.30
64739;BME280;51175;51.186;0.276;2022-10-16T02:01:26;100326.31;;;16.37;63.60
64739;BME280;51175;51.186;0.276;2022-10-16T02:02:00;100328.22;;;16.37;63.51
64739;BME280;51175;51.186;0.276;2022-10-16T02:02:34;100323.66;;;16.37;63.63
64739;BME280;51175;51.186;0.276;2022-10-16T02:03:05;100317.25;;;16.38;63.67
64739;BME280;51175;51.186;0.276;2022-10-16T02:03:37;100321.78;;;16.38;63.48
64739;BME280;51175;51.186;0.276;2022-10-16T02:04:53;100327.13;;;16.38;63.52
64739;BME280;51175;51.186;0.276;2022-10-16T02:05:55;100331.66;;;16.37;63.68
64739;BME280;51175;51.186;0.276;2022-10-16T02:06:23;100325.56;;;16.37;63.61
64739;BME280;51175;51.186;0.276;2022-10-16T02:06:55;100329.28;;;16.36;63.63
64739;BME280;51175;51.186;0.276;2022-10-16T02:07:25;100330.09;;;16.36;63.52
64739;BME280;51175;51.186;0.276;2022-10-16T02:07:56;100332.75;;;16.36;63.37
64739;BME280;51175;51.186;0.276;2022-10-16T02:08:28;100325.84;;;16.35;63.70
64739;BME280;51175;51.186;0.276;2022-10-16T02:08:59;100332.75;;;16.36;63.49
64739;BME280;51175;51.186;0.276;2022-10-16T02:09:33;100334.31;;;16.37;63.32
64739;BME280;51175;51.186;0.276;2022-10-16T02:10:04;100339.66;;;16.37;63.65
64739;BME280;51175;51.186;0.276;2022-10-16T02:10:36;100336.22;;;16.37;63.56
64739;BME280;51175;51.186;0.276;2022-10-16T02:11:06;100329.00;;;16.37;63.46
64739;BME280;51175;51.186;0.276;2022-10-16T02:11:37;100330.09;;;16.36;63.45
64739;BME280;51175;51.186;0.276;2022-10-16T02:12:25;100334.31;;;16.37;63.52
64739;BME280;51175;51.186;0.276;2022-10-16T02:13:22;100335.13;;;16.38;63.27
64739;BME280;51175;51.186;0.276;2022-10-16T02:14:05;100336.97;;;16.37;63.64
64739;BME280;51175;51.186;0.276;2022-10-16T02:14:38;100338.09;;;16.36;63.61
64739;BME280;51175;51.186;0.276;2022-10-16T02:15:09;100335.41;;;16.36;63.58
64739;BME280;51175;51.186;0.276;2022-10-16T02:15:39;100341.84;;;16.35;63.57
64739;BME280;51175;51.186;0.276;2022-10-16T02:16:10;100340.25;;;16.34;63.69
64739;BME280;51175;51.186;0.276;2022-10-16T02:16:44;100341.84;;;16.35;63.44
64739;BME280;51175;51.186;0.276;2022-10-16T02:17:16;100337.28;;;16.36;63.47
64739;BME280;51175;51.186;0.276;2022-10-16T02:17:47;100345.28;;;16.36;63.27
64739;BME280;51175;51.186;0.276;2022-10-16T02:18:18;100341.84;;;16.35;63.50
64739;BME280;51175;51.186;0.276;2022-10-16T02:18:48;100342.91;;;16.34;63.53
64739;BME280;51175;51.186;0.276;2022-10-16T02:19:19;100351.72;;;16.35;63.53
64739;BME280;51175;51.186;0.276;2022-10-16T02:19:53;100352.50;;;16.35;63.30
64739;BME280;51175;51.186;0.276;2022-10-16T02:20:27;100352.97;;;16.37;63.64
64739;BME280;51175;51.186;0.276;2022-10-16T02:21:59;100351.41;;;16.36;63.48
64739;BME280;51175;51.186;0.276;2022-10-16T02:22:43;100355.94;;;16.36;63.65
64739;BME280;51175;51.186;0.276;2022-10-16T02:23:24;100354.38;;;16.35;63.63
64739;BME280;51175;51.186;0.276;2022-10-16T02:24:17;100365.03;;;16.35;63.55
64739;BME280;51175;51.186;0.276;2022-10-16T02:25:19;100362.38;;;16.35;63.47
64739;BME280;51175;51.186;0.276;2022-10-16T02:25:53;100368.00;;;16.33;63.61
64739;BME280;51175;51.186;0.276;2022-10-16T02:28:48;100356.84;;;16.31;63.67
64739;BME280;51175;51.186;0.276;2022-10-16T02:29:25;100364.03;;;16.31;63.73
64739;BME280;51175;51.186;0.276;2022-10-16T02:30:03;100362.19;;;16.31;63.58
64739;BME280;51175;51.186;0.276;2022-10-16T02:30:48;100359.00;;;16.29;63.52
64739;BME280;51175;51.186;0.276;2022-10-16T02:31:25;100363.56;;;16.29;63.56
64739;BME280;51175;51.186;0.276;2022-10-16T02:32:01;100360.91;;;16.29;63.44
64739;BME280;51175;51.186;0.276;2022-10-16T02:32:34;100368.09;;;16.28;63.68
64739;BME280;51175;51.186;0.276;2022-10-16T02:33:10;100357.44;;;16.28;63.79
64739;BME280;51175;51.186;0.276;2022-10-16T02:33:42;100360.13;;;16.28;63.66
64739;BME280;51175;51.186;0.276;2022-10-16T02:34:14;100352.13;;;16.28;63.96
64739;BME280;51175;51.186;0.276;2022-10-16T02:34:48;100367.00;;;16.29;63.93
64739;BME280;51175;51.186;0.276;2022-10-16T02:35:21;100356.34;;;16.29;63.89
64739;BME280;51175;51.186;0.276;2022-10-16T02:35:54;100360.91;;;16.29;63.76
64739;BME280;51175;51.186;0.276;2022-10-16T02:36:26;100361.69;;;16.29;63.74
64739;BME280;51175;51.186;0.276;2022-10-16T02:36:58;100361.69;;;16.29;63.59
64739;BME280;51175;51.186;0.276;2022-10-16T02:37:30;100366.25;;;16.29;63.60
64739;BME280;51175;51.186;0.276;2022-10-16T02:38:01;100366.25;;;16.29;63.59
64739;BME280;51175;51.186;0.276;2022-10-16T02:38:32;100365.94;;;16.30;63.66
64739;BME280;51175;51.186;0.276;2022-10-16T02:39:04;100362.47;;;16.30;63.56
64739;BME280;51175;51.186;0.276;2022-10-16T02:39:34;100366.72;;;16.31;63.41
64739;BME280;51175;51.186;0.276;2022-10-16T02:40:06;100365.94;;;16.30;63.39
64739;BME280;51175;51.186;0.276;2022-10-16T02:40:37;100366.72;;;16.31;63.48
64739;BME280;51175;51.186;0.276;2022-10-16T02:41:07;100361.38;;;16.31;63.48
64739;BME280;51175;51.186;0.276;2022-10-16T02:41:39;100368.59;;;16.30;63.53
64739;BME280;51175;51.186;0.276;2022-10-16T02:42:11;100367.50;;;16.31;63.36
64739;BME280;51175;51.186;0.276;2022-10-16T02:42:42;100367.50;;;16.31;63.55
64739;BME280;51175;51.186;0.276;2022-10-16T02:43:13;100366.72;;;16.31;63.46
64739;BME280;51175;51.186;0.276;2022-10-16T02:43:43;100361.06;;;16.32;63.43
64739;BME280;51175;51.186;0.276;2022-10-16T02:44:13;100366.72;;;16.31;63.53
64739;BME280;51175;51.186;0.276;2022-10-16T02:44:44;100373.63;;;16.32;63.27
64739;BME280;51175;51.186;0.276;2022-10-16T02:45:14;100369.06;;;16.32;63.56
64739;BME280;51175;51.186;0.276;2022-10-16T02:45:44;100371.75;;;16.32;63.33
64739;BME280;51175;51.186;0.276;2022-10-16T02:46:15;100371.75;;;16.32;63.19
64739;BME280;51175;51.186;0.276;2022-10-16T02:46:47;100374.41;;;16.32;63.53
64739;BME280;51175;51.186;0.276;2022-10-16T02:47:17;100375.19;;;16.33;63.30
64739;BME280;51175;51.186;0.276;2022-10-16T02:47:47;100374.41;;;16.32;63.34
64739;BME280;51175;51.186;0.276;2022-10-16T02:48:18;100375.19;;;16.33;63.41
64739;BME280;51175;51.186;0.276;2022-10-16T02:48:48;100375.19;;;16.33;63.28
64739;BME280;51175;51.186;0.276;2022-10-16T02:49:18;100372.53;;;16.33;63.34
64739;BME280;51175;51.186;0.276;2022-10-16T02:49:49;100378.66;;;16.33;63.32
64739;BME280;51175;51.186;0.276;2022-10-16T02:50:19;100377.88;;;16.33;63.11
64739;BME280;51175;51.186;0.276;2022-10-16T02:50:50;100381.31;;;16.33;63.52
64739;BME280;51175;51.186;0.276;2022-10-16T02:51:21;100380.53;;;16.33;63.42
64739;BME280;51175;51.186;0.276;2022-10-16T02:51:51;100377.88;;;16.33;63.33
64739;BME280;51175;51.186;0.276;2022-10-16T02:52:21;100373.34;;;16.33;63.00
64739;BME280;51175;51.186;0.276;2022-10-16T02:52:52;100377.88;;;16.33;63.22
64739;BME280;51175;51.186;0.276;2022-10-16T02:53:22;100376.00;;;16.33;63.47
64739;BME280;51175;51.186;0.276;2022-10-16T02:53:53;100376.00;;;16.33;63.36
64739;BME280;51175;51.186;0.276;2022-10-16T02:54:23;100386.66;;;16.33;63.46
64739;BME280;51175;51.186;0.276;2022-10-16T02:54:54;100381.31;;;16.33;63.34
64739;BME280;51175;51.186;0.276;2022-10-16T02:55:24;100387.47;;;16.34;63.07
64739;BME280;51175;51.186;0.276;2022-10-16T02:55:54;100377.56;;;16.34;63.19
64739;BME280;51175;51.186;0.276;2022-10-16T02:56:25;100376.00;;;16.33;63.12
64739;BME280;51175;51.186;0.276;2022-10-16T02:56:55;100384.00;;;16.33;63.33
64739;BME280;51175;51.186;0.276;2022-10-16T02:57:26;100384.00;;;16.33;63.20
64739;BME280;51175;51.186;0.276;2022-10-16T02:57:56;100390.13;;;16.34;63.14
64739;BME280;51175;51.186;0.276;2022-10-16T02:58:27;100389.31;;;16.33;62.95
64739;BME280;51175;51.186;0.276;2022-10-16T02:58:57;100392.00;;;16.33;62.87
64739;BME280;51175;51.186;0.276;2022-10-16T02:59:28;100386.66;;;16.33;63.21
64739;BME280;51175;51.186;0.276;2022-10-16T02:59:58;100392.00;;;16.33;63.13
64739;BME280;51175;51.186;0.276;2022-10-16T03:00:28;100386.66;;;16.33;62.97
64739;BME280;51175;51.186;0.276;2022-10-16T03:00:59;100386.66;;;16.33;62.75
64739;BME280;51175;51.186;0.276;2022-10-16T03:01:29;100384.78;;;16.34;63.05
64739;BME280;51175;51.186;0.276;2022-10-16T03:02:00;100391.19;;;16.33;63.16
64739;BME280;51175;51.186;0.276;2022-10-16T03:02:30;100393.84;;;16.33;62.78
64739;BME280;51175;51.186;0.276;2022-10-16T03:03:00;100392.00;;;16.33;62.89
64739;BME280;51175;51.186;0.276;2022-10-16T03:03:31;100395.72;;;16.32;62.79
64739;BME280;51175;51.186;0.276;2022-10-16T03:04:01;100392.00;;;16.33;63.00
64739;BME280;51175;51.186;0.276;2022-10-16T03:04:31;100396.53;;;16.33;62.97
64739;BME280;51175;51.186;0.276;2022-10-16T03:05:02;100401.06;;;16.32;62.65
64739;BME280;51175;51.186;0.276;2022-10-16T03:05:32;100394.66;;;16.33;62.81
64739;BME280;51175;51.186;0.276;2022-10-16T03:06:03;100393.06;;;16.32;63.06
64739;BME280;51175;51.186;0.276;2022-10-16T03:06:34;100391.19;;;16.33;62.83
64739;BME280;51175;51.186;0.276;2022-10-16T03:07:04;100394.66;;;16.33;62.72
64739;BME280;51175;51.186;0.276;2022-10-16T03:07:35;100399.19;;;16.33;62.93
64739;BME280;51175;51.186;0.276;2022-10-16T03:08:05;100398.38;;;16.32;62.81
64739;BME280;51175;51.186;0.276;2022-10-16T03:08:35;100393.06;;;16.32;62.57
64739;BME280;51175;51.186;0.276;2022-10-16T03:09:06;100395.72;;;16.32;62.90
64739;BME280;51175;51.186;0.276;2022-10-16T03:09:36;100387.72;;;16.32;62.45
64739;BME280;51175;51.186;0.276;2022-10-16T03:10:07;100401.06;;;16.32;62.48
64739;BME280;51175;51.186;0.276;2022-10-16T03:10:37;100395.72;;;16.32;62.60
64739;BME280;51175;51.186;0.276;2022-10-16T03:11:08;100399.47;;;16.31;62.59
64739;BME280;51175;51.186;0.276;2022-10-16T03:11:38;100397.91;;;16.30;62.62
64739;BME280;51175;51.186;0.276;2022-10-16T03:12:08;100394.94;;;16.32;62.76
64739;BME280;51175;51.186;0.276;2022-10-16T03:12:39;100402.16;;;16.31;62.77
64739;BME280;51175;51.186;0.276;2022-10-16T03:13:09;100392.59;;;16.30;62.62
64739;BME280;51175;51.186;0.276;2022-10-16T03:13:39;100396.03;;;16.31;62.33
64739;BME280;51175;51.186;0.276;2022-10-16T03:14:10;100404.00;;;16.31;62.69
64739;BME280;51175;51.186;0.276;2022-10-16T03:14:40;100396.03;;;16.31;62.48
64739;BME280;51175;51.186;0.276;2022-10-16T03:15:10;100408.28;;;16.32;62.70
64739;BME280;51175;51.186;0.276;2022-10-16T03:15:41;100408.56;;;16.30;62.75